Salt Lake City, Utah
Traffic Map
Current Weather Conditions
Salt Lake City, Utah
Broken Clouds
Broken Clouds
80°
Feels Like: 80°
Wind Chill: 80° Ceiling: 14000
Heat Index: 80° Visibility: 10mi
Dew Point: 52° Wind: 10mph
Humidity: 38% Direction: 110° (ESE)
Pressure: 30.11in Gusts: 0mph
Raw Report DataKSLC 161554Z 11009KT 10SM FEW090 BKN140 BKN220 27/11 A3011 RMK AO2 SLP132 VIRGA OHD AND DSNT NW-N CB DSNT NW SH DSNT NE T02670111 $
Traffic Incident Summary
Active as of:
Severity:
Category:
InformationThere was an issue retrieving the traffic information for this location. Please try a different location or try again shortly.
Advertisements